Time;durP1;ratioP1;P1;durP2;ratioP2;P2;SDS_P1;SDS_P2;PMS_P1;PMS_P2;Temp;Humidity;BMP_temperature;BMP_pressure;BME280_temperature;BME280_humidity;BME280_pressure;Samples;Min_cycle;Max_cycle;Signal;HPM_P1;HPM_P2
2023/03/05 00:03:01;;;;;;;22.50;9.05;;;6.20;97.20;;;;;;10103494;28;20033;-62
2023/03/05 00:07:51;;;;;;;24.90;9.55;;;6.10;97.20;;;;;;10099806;28;20041;-61
2023/03/05 00:12:42;;;;;;;20.65;8.40;;;6.20;97.30;;;;;;10098802;28;20456;-62
2023/03/05 00:17:33;;;;;;;25.73;8.75;;;6.30;97.20;;;;;;10098369;28;20049;-62
2023/03/05 00:22:23;;;;;;;20.98;8.60;;;6.30;97.30;;;;;;10103069;28;20032;-60
2023/03/05 00:27:14;;;;;;;22.02;8.57;;;6.20;97.30;;;;;;10112824;28;20285;-62
2023/03/05 00:32:05;;;;;;;17.55;7.57;;;6.30;97.40;;;;;;10107395;28;20032;-61
2023/03/05 00:36:56;;;;;;;23.85;8.50;;;6.20;97.40;;;;;;10107369;28;20029;-62
2023/03/05 00:41:47;;;;;;;25.02;8.88;;;6.20;97.40;;;;;;10117593;28;20033;-60
2023/03/05 00:46:38;;;;;;;27.05;8.95;;;6.10;97.30;;;;;;10107200;28;20025;-62
2023/03/05 00:51:29;;;;;;;23.33;8.85;;;6.10;97.40;;;;;;10107355;28;20072;-63
2023/03/05 00:56:21;;;;;;;25.60;8.38;;;6.00;97.50;;;;;;10118035;28;20036;-62
2023/03/05 01:01:12;;;;;;;20.60;7.82;;;6.10;97.50;;;;;;10105502;28;20147;-62
2023/03/05 01:06:08;;;;;;;22.27;10.27;;;6.10;97.50;;;;;;10107141;28;20032;-61
2023/03/05 01:10:59;;;;;;;24.67;9.82;;;6.10;97.50;;;;;;10107111;28;20191;-60
2023/03/05 01:15:50;;;;;;;23.80;8.35;;;6.10;97.50;;;;;;10105375;28;20562;-61
2023/03/05 01:20:41;;;;;;;27.75;10.85;;;6.10;97.50;;;;;;10109782;28;20021;-61
2023/03/05 01:25:31;;;;;;;25.38;9.02;;;5.90;97.70;;;;;;10100578;28;20025;-60
2023/03/05 01:30:22;;;;;;;25.08;10.50;;;5.80;97.80;;;;;;10092412;28;20108;-61
2023/03/05 01:35:19;;;;;;;22.83;10.05;;;5.80;97.90;;;;;;10106461;28;20028;-60
2023/03/05 01:40:12;;;;;;;29.48;9.70;;;5.80;98.00;;;;;;10102016;28;20531;-61
2023/03/05 01:45:12;;;;;;;31.85;10.70;;;5.90;97.90;;;;;;10104086;28;20065;-61
2023/03/05 01:50:09;;;;;;;25.67;10.13;;;5.90;97.90;;;;;;10106900;28;20480;-61
2023/03/05 01:55:04;;;;;;;24.35;9.88;;;5.80;98.00;;;;;;10108391;28;20551;-60
2023/03/05 01:59:59;;;;;;;25.63;10.02;;;5.90;98.00;;;;;;10103638;28;20033;-61
2023/03/05 02:04:56;;;;;;;23.80;9.85;;;5.70;98.00;;;;;;10113633;28;20025;-61
2023/03/05 02:09:47;;;;;;;25.48;8.57;;;5.80;98.10;;;;;;10103421;28;20029;-60
2023/03/05 02:14:40;;;;;;;21.33;9.63;;;5.80;98.10;;;;;;10103154;28;20049;-60
2023/03/05 02:19:49;;;;;;;24.20;9.50;;;5.90;98.20;;;;;;10106254;28;20030;-60
2023/03/05 02:24:39;;;;;;;20.90;9.88;;;5.90;98.20;;;;;;10103738;28;20021;-61
2023/03/05 02:29:31;;;;;;;23.80;8.57;;;5.90;98.30;;;;;;10103277;28;20024;-60
2023/03/05 02:34:22;;;;;;;26.80;10.98;;;5.80;98.30;;;;;;10105909;28;20687;-61
2023/03/05 02:39:13;;;;;;;23.90;10.13;;;5.70;98.40;;;;;;10102359;28;20336;-61
2023/03/05 02:44:04;;;;;;;32.25;10.85;;;5.80;98.40;;;;;;10102051;28;20037;-61
2023/03/05 02:48:54;;;;;;;27.27;10.90;;;5.60;98.50;;;;;;10110883;28;20086;-61
2023/03/05 02:53:45;;;;;;;29.80;10.95;;;5.50;98.60;;;;;;10101336;28;20037;-62
2023/03/05 02:58:35;;;;;;;28.52;11.55;;;5.60;98.80;;;;;;10102263;28;20123;-61
2023/03/05 03:03:26;;;;;;;29.85;10.23;;;5.70;98.70;;;;;;10113518;28;20044;-62
2023/03/05 03:08:17;;;;;;;29.20;11.32;;;5.60;98.70;;;;;;10101428;28;20029;-64
2023/03/05 03:13:07;;;;;;;29.33;11.00;;;5.70;98.80;;;;;;10102901;28;20043;-61
2023/03/05 03:17:58;;;;;;;24.33;10.88;;;5.70;98.80;;;;;;10100710;28;20024;-61
2023/03/05 03:22:48;;;;;;;30.88;10.77;;;5.70;98.70;;;;;;10101626;28;20079;-62
2023/03/05 03:27:39;;;;;;;25.52;10.10;;;5.60;98.80;;;;;;10106920;28;20020;-62
2023/03/05 03:32:31;;;;;;;27.85;11.00;;;5.40;99.00;;;;;;10090890;28;20473;-60
2023/03/05 03:37:21;;;;;;;25.80;10.18;;;5.40;99.10;;;;;;10090410;28;20021;-62
2023/03/05 03:42:15;;;;;;;26.40;9.48;;;5.50;99.00;;;;;;10093024;28;20424;-61
2023/03/05 03:47:07;;;;;;;30.98;10.45;;;5.50;99.00;;;;;;10094046;28;20050;-61
2023/03/05 03:51:57;;;;;;;31.35;10.98;;;5.40;99.10;;;;;;10099806;28;20029;-62
2023/03/05 03:56:48;;;;;;;26.50;12.50;;;5.40;99.10;;;;;;10101338;28;20033;-61
2023/03/05 04:01:39;;;;;;;30.15;10.43;;;5.30;99.00;;;;;;10092222;28;20036;-60
2023/03/05 04:06:30;;;;;;;31.10;10.30;;;5.40;99.00;;;;;;10073294;28;20022;-62
2023/03/05 04:11:21;;;;;;;29.63;11.23;;;5.50;99.10;;;;;;10102129;28;20021;-62
2023/03/05 04:16:13;;;;;;;26.75;11.15;;;5.50;99.00;;;;;;10097943;28;20114;-61
2023/03/05 04:21:04;;;;;;;24.65;10.95;;;5.50;99.10;;;;;;10085420;28;20116;-62
2023/03/05 04:25:55;;;;;;;30.02;9.38;;;5.50;99.10;;;;;;10109682;28;20171;-60
2023/03/05 04:30:45;;;;;;;32.20;11.95;;;5.60;99.20;;;;;;10099550;28;20297;-62
2023/03/05 04:35:36;;;;;;;23.10;10.65;;;5.40;99.20;;;;;;10098896;28;20100;-61
2023/03/05 04:40:27;;;;;;;23.55;9.00;;;5.50;99.20;;;;;;10100136;28;20086;-61
2023/03/05 04:45:17;;;;;;;24.13;10.07;;;5.60;99.20;;;;;;10098527;28;20031;-62
2023/03/05 04:50:10;;;;;;;21.35;9.20;;;5.60;99.10;;;;;;10098614;28;20029;-60
2023/03/05 04:55:01;;;;;;;33.75;12.13;;;5.70;99.20;;;;;;10104941;28;20052;-60
2023/03/05 04:59:51;;;;;;;22.77;9.07;;;5.60;99.20;;;;;;10098550;28;20036;-61
2023/03/05 05:04:44;;;;;;;22.90;10.40;;;5.40;99.30;;;;;;10100272;28;20029;-61
2023/03/05 05:09:34;;;;;;;25.65;10.10;;;5.40;99.40;;;;;;10115732;28;20256;-61
2023/03/05 05:14:25;;;;;;;23.63;9.60;;;5.40;99.50;;;;;;10105329;28;20679;-62
2023/03/05 05:19:15;;;;;;;26.90;10.52;;;5.40;99.50;;;;;;10105843;28;20032;-62
2023/03/05 05:24:06;;;;;;;23.58;10.35;;;5.40;99.80;;;;;;10106431;28;20033;-59
2023/03/05 05:28:57;;;;;;;29.45;10.13;;;5.40;99.40;;;;;;10105110;28;20021;-61
2023/03/05 05:33:47;;;;;;;27.83;10.57;;;5.40;99.60;;;;;;10110009;28;20055;-60
2023/03/05 05:38:38;;;;;;;31.67;11.20;;;5.30;99.60;;;;;;10105700;28;20364;-61
2023/03/05 05:43:29;;;;;;;27.08;10.82;;;5.30;99.70;;;;;;10103995;28;20067;-59
2023/03/05 05:48:20;;;;;;;26.05;11.15;;;5.30;99.60;;;;;;10112229;28;20031;-62
2023/03/05 05:53:11;;;;;;;25.42;11.15;;;5.20;99.70;;;;;;10105806;28;20438;-61
2023/03/05 05:58:01;;;;;;;24.48;10.48;;;5.20;99.70;;;;;;10104503;28;20106;-61
2023/03/05 06:02:52;;;;;;;30.75;11.23;;;5.20;99.80;;;;;;10093910;28;20040;-61
2023/03/05 06:07:43;;;;;;;21.95;9.70;;;5.30;99.80;;;;;;10089099;28;20111;-60
2023/03/05 06:12:34;;;;;;;24.83;10.82;;;5.30;99.80;;;;;;10089083;28;20036;-59
2023/03/05 06:17:24;;;;;;;28.73;9.65;;;5.30;99.80;;;;;;10103728;28;20280;-60
2023/03/05 06:22:15;;;;;;;29.60;8.90;;;5.40;99.90;;;;;;10095533;28;20041;-60
2023/03/05 06:27:05;;;;;;;34.38;11.60;;;5.40;99.90;;;;;;10102737;28;20029;-60
2023/03/05 06:31:56;;;;;;;23.02;10.23;;;5.40;99.90;;;;;;10123146;28;20036;-60
2023/03/05 06:36:47;;;;;;;32.10;12.40;;;5.40;99.90;;;;;;10104715;28;20029;-60
2023/03/05 06:41:37;;;;;;;27.60;11.02;;;5.40;99.90;;;;;;10102061;28;20044;-61
2023/03/05 06:46:38;;;;;;;25.88;9.82;;;5.40;99.90;;;;;;10103199;28;20100;-61
2023/03/05 06:51:31;;;;;;;24.20;10.50;;;5.50;99.90;;;;;;10102189;28;20025;-60
2023/03/05 06:56:22;;;;;;;30.27;10.43;;;5.40;99.90;;;;;;10102448;28;20025;-62
2023/03/05 07:01:14;;;;;;;30.48;11.05;;;5.50;99.90;;;;;;10107291;28;20037;-64
2023/03/05 07:06:07;;;;;;;30.15;12.88;;;5.40;99.90;;;;;;10100022;28;20420;-62
2023/03/05 07:10:59;;;;;;;31.67;11.80;;;5.30;99.90;;;;;;10101117;28;20029;-62
2023/03/05 07:15:49;;;;;;;27.05;11.00;;;5.40;99.90;;;;;;10109054;28;20057;-61
2023/03/05 07:20:40;;;;;;;33.03;12.00;;;5.40;99.90;;;;;;10101294;28;20037;-62
2023/03/05 07:25:31;;;;;;;28.23;11.45;;;5.40;99.90;;;;;;10109765;28;20371;-62
2023/03/05 07:30:22;;;;;;;27.13;11.07;;;5.30;99.90;;;;;;10078614;28;20028;-63
2023/03/05 07:35:13;;;;;;;33.55;11.48;;;5.40;99.90;;;;;;10092958;28;20079;-63
2023/03/05 07:40:05;;;;;;;27.95;12.38;;;5.40;99.90;;;;;;10093473;28;20117;-63
2023/03/05 07:44:56;;;;;;;27.77;10.40;;;5.30;99.90;;;;;;10095839;28;20040;-63
2023/03/05 07:49:46;;;;;;;33.83;11.35;;;5.40;99.90;;;;;;10100157;28;20025;-63
2023/03/05 07:54:38;;;;;;;21.88;10.10;;;5.40;99.90;;;;;;10104724;28;20536;-61
2023/03/05 07:59:28;;;;;;;32.30;12.27;;;5.40;99.90;;;;;;10102762;28;20064;-62
2023/03/05 08:04:19;;;;;;;31.20;11.80;;;5.40;99.90;;;;;;10101499;28;20069;-61
2023/03/05 08:09:10;;;;;;;27.38;11.45;;;5.40;99.90;;;;;;10100531;28;20048;-63
2023/03/05 08:14:00;;;;;;;31.65;12.30;;;5.50;99.90;;;;;;10099474;28;20474;-61
2023/03/05 08:18:55;;;;;;;31.38;11.93;;;5.40;99.90;;;;;;10098630;28;20031;-60
2023/03/05 08:23:46;;;;;;;26.90;11.38;;;5.60;99.90;;;;;;10104306;28;20139;-62
2023/03/05 08:28:36;;;;;;;30.25;11.30;;;5.60;99.90;;;;;;10098513;28;20025;-61
2023/03/05 08:33:27;;;;;;;29.63;11.40;;;5.70;99.90;;;;;;10098516;28;20514;-62
2023/03/05 08:38:18;;;;;;;27.13;10.90;;;5.90;99.90;;;;;;10107012;28;20025;-61
2023/03/05 08:43:08;;;;;;;31.05;12.85;;;6.20;99.90;;;;;;10104204;28;20098;-60
2023/03/05 08:47:59;;;;;;;32.10;12.55;;;5.90;99.90;;;;;;10107862;28;20024;-61
2023/03/05 08:52:50;;;;;;;25.30;11.07;;;6.00;99.90;;;;;;10108354;28;20021;-61
2023/03/05 08:57:41;;;;;;;30.75;11.50;;;6.10;99.90;;;;;;10106423;28;20506;-60
2023/03/05 09:02:31;;;;;;;29.67;11.95;;;6.30;99.90;;;;;;10109291;28;20451;-61
2023/03/05 09:07:22;;;;;;;33.63;11.68;;;6.40;99.90;;;;;;10111810;28;20180;-62
2023/03/05 09:12:14;;;;;;;28.52;11.90;;;6.60;99.90;;;;;;10106236;28;20506;-62
2023/03/05 09:17:05;;;;;;;25.52;11.13;;;6.50;99.90;;;;;;10105583;28;20036;-61
2023/03/05 09:21:56;;;;;;;31.52;14.10;;;6.60;99.90;;;;;;10114767;28;20048;-61
2023/03/05 09:26:46;;;;;;;30.00;14.02;;;6.80;99.90;;;;;;10106413;28;20025;-61
2023/03/05 09:31:37;;;;;;;29.15;12.77;;;6.90;99.90;;;;;;10106412;28;20067;-61
2023/03/05 09:36:30;;;;;;;26.35;11.00;;;6.80;99.90;;;;;;10105087;28;20049;-61
2023/03/05 09:41:28;;;;;;;26.50;10.82;;;6.90;99.90;;;;;;10103988;28;20457;-60
2023/03/05 09:46:22;;;;;;;25.80;10.82;;;6.90;99.90;;;;;;10105505;28;20124;-63
2023/03/05 09:51:21;;;;;;;31.15;12.10;;;7.00;99.90;;;;;;10100692;28;20124;-60
2023/03/05 09:56:17;;;;;;;27.90;13.15;;;7.10;99.90;;;;;;10104310;28;20048;-62
2023/03/05 10:01:10;;;;;;;23.48;11.07;;;7.20;99.90;;;;;;10109059;28;20391;-61
2023/03/05 10:06:00;;;;;;;33.08;11.77;;;7.00;99.90;;;;;;10107044;28;20167;-62
2023/03/05 10:10:52;;;;;;;30.40;12.23;;;7.20;99.90;;;;;;10104938;28;20031;-61
2023/03/05 10:16:00;;;;;;;28.98;11.63;;;7.40;99.90;;;;;;10113835;28;20055;-61
2023/03/05 10:20:56;;;;;;;27.55;12.00;;;7.60;99.90;;;;;;10103099;28;20551;-60
2023/03/05 10:26:05;;;;;;;28.75;11.93;;;7.50;99.90;;;;;;10105258;28;20518;-60
2023/03/05 10:31:05;;;;;;;24.98;11.30;;;7.30;99.90;;;;;;10105337;28;20029;-61
2023/03/05 10:35:59;;;;;;;32.80;11.68;;;7.40;99.90;;;;;;10102636;28;20040;-60
2023/03/05 10:40:59;;;;;;;23.85;10.43;;;7.60;99.90;;;;;;10100951;28;20033;-61
2023/03/05 10:45:53;;;;;;;31.65;12.57;;;7.60;99.80;;;;;;10109419;28;20048;-61
2023/03/05 10:50:47;;;;;;;21.65;10.82;;;7.60;99.70;;;;;;10102491;28;20035;-62
2023/03/05 10:55:38;;;;;;;20.83;10.45;;;7.50;99.90;;;;;;10101863;28;20400;-61
2023/03/05 11:00:28;;;;;;;26.58;9.90;;;7.40;99.90;;;;;;10114543;28;20036;-60
2023/03/05 11:06:02;;;;;;;20.25;8.90;;;7.50;99.80;;;;;;10103746;28;20029;-61
2023/03/05 11:11:11;;;;;;;21.40;9.77;;;7.60;99.70;;;;;;10101495;28;20044;-60
2023/03/05 11:16:05;;;;;;;18.35;9.77;;;7.70;99.60;;;;;;10101659;28;20135;-60
2023/03/05 11:21:18;;;;;;;27.40;11.27;;;7.70;99.80;;;;;;10101342;28;20069;-60
2023/03/05 11:26:12;;;;;;;21.00;9.77;;;7.90;99.60;;;;;;10109885;28;20563;-61
2023/03/05 11:31:14;;;;;;;24.00;10.38;;;7.90;99.70;;;;;;10099211;28;20033;-60
2023/03/05 11:36:11;;;;;;;26.52;12.93;;;7.80;99.70;;;;;;10077915;28;20057;-61
2023/03/05 11:41:02;;;;;;;24.20;9.43;;;7.90;99.70;;;;;;10102420;28;20060;-60
2023/03/05 11:46:00;;;;;;;21.58;10.07;;;7.90;99.70;;;;;;10089679;28;20029;-61
2023/03/05 11:51:00;;;;;;;23.10;10.68;;;8.10;99.70;;;;;;10092512;28;20432;-60
2023/03/05 11:56:13;;;;;;;25.30;9.77;;;8.50;99.50;;;;;;10103290;28;20029;-62
2023/03/05 12:01:13;;;;;;;18.27;7.45;;;8.40;99.60;;;;;;10099296;28;20033;-60
2023/03/05 12:06:37;;;;;;;18.88;8.77;;;8.10;99.90;;;;;;10101280;28;20032;-61
2023/03/05 12:11:30;;;;;;;20.30;9.95;;;8.30;99.80;;;;;;10106532;28;20075;-61
2023/03/05 12:16:27;;;;;;;16.25;7.00;;;8.30;99.70;;;;;;10098531;28;20198;-62
2023/03/05 12:21:39;;;;;;;11.02;5.97;;;8.00;99.70;;;;;;10100521;28;20029;-61
2023/03/05 12:26:57;;;;;;;20.98;9.50;;;8.10;99.70;;;;;;10106159;28;20036;-60
2023/03/05 12:31:48;;;;;;;16.08;7.88;;;8.10;99.80;;;;;;10098988;28;20036;-62
2023/03/05 12:36:39;;;;;;;14.98;6.80;;;8.00;99.60;;;;;;10101726;28;20036;-61
2023/03/05 12:41:30;;;;;;;17.48;9.43;;;7.80;99.80;;;;;;10098688;28;20411;-60
2023/03/05 12:46:31;;;;;;;18.05;8.35;;;7.90;99.80;;;;;;10098268;28;20035;-60
2023/03/05 12:51:32;;;;;;;21.17;9.65;;;8.20;99.50;;;;;;10104943;28;20037;-61
2023/03/05 12:56:28;;;;;;;21.85;9.07;;;8.20;99.30;;;;;;10098953;28;20017;-61
2023/03/05 13:01:41;;;;;;;16.45;8.43;;;8.30;99.30;;;;;;10098058;28;20142;-60
2023/03/05 13:06:34;;;;;;;15.63;8.70;;;8.20;99.20;;;;;;10097280;28;20434;-60
2023/03/05 13:11:27;;;;;;;13.52;5.65;;;8.10;99.40;;;;;;10098512;28;20075;-59
2023/03/05 13:16:23;;;;;;;14.63;7.18;;;8.00;99.40;;;;;;10098120;28;20068;-61
2023/03/05 13:21:16;;;;;;;12.75;7.22;;;7.90;99.40;;;;;;10101224;28;20048;-61
2023/03/05 13:26:17;;;;;;;15.93;6.35;;;7.90;99.40;;;;;;10086759;28;20029;-61
2023/03/05 13:31:17;;;;;;;14.07;6.40;;;7.90;99.30;;;;;;10076470;28;20037;-60
2023/03/05 13:36:15;;;;;;;16.95;5.68;;;7.90;99.30;;;;;;10109145;28;20037;-61
2023/03/05 13:41:10;;;;;;;14.05;7.20;;;7.90;99.30;;;;;;10099393;28;20148;-61
2023/03/05 13:46:01;;;;;;;14.40;5.97;;;7.90;99.30;;;;;;10097540;28;20017;-60
2023/03/05 13:50:56;;;;;;;15.15;6.20;;;8.10;99.20;;;;;;10104848;28;20025;-60
2023/03/05 13:55:49;;;;;;;13.75;7.25;;;7.90;99.30;;;;;;10104554;28;20029;-61
2023/03/05 14:00:40;;;;;;;12.68;5.97;;;7.90;99.40;;;;;;10102859;28;20511;-61
2023/03/05 14:05:30;;;;;;;14.63;7.13;;;8.00;99.30;;;;;;10106455;28;20243;-62
2023/03/05 14:10:27;;;;;;;12.27;6.13;;;7.90;99.20;;;;;;10103231;28;20026;-61
2023/03/05 14:15:29;;;;;;;13.68;6.18;;;8.00;99.30;;;;;;10103816;28;20103;-62
2023/03/05 14:20:28;;;;;;;9.43;4.85;;;7.90;99.30;;;;;;10103495;28;20022;-61
2023/03/05 14:25:37;;;;;;;12.55;5.93;;;7.80;99.30;;;;;;10103171;28;20284;-61
2023/03/05 14:30:29;;;;;;;15.00;5.55;;;7.90;99.20;;;;;;10102350;28;20017;-62
2023/03/05 14:35:27;;;;;;;10.07;5.28;;;7.80;99.10;;;;;;10102490;28;20025;-60
2023/03/05 14:40:22;;;;;;;9.00;4.57;;;7.90;99.10;;;;;;10102122;28;20086;-62
2023/03/05 14:45:19;;;;;;;5.90;3.75;;;7.80;99.00;;;;;;10101062;28;20574;-61
2023/03/05 14:50:21;;;;;;;5.38;2.95;;;7.80;98.90;;;;;;10114051;28;20045;-61
2023/03/05 14:55:20;;;;;;;4.60;2.70;;;7.80;98.70;;;;;;10114866;22;20053;-60
2023/03/05 15:00:20;;;;;;;8.02;3.17;;;7.70;98.60;;;;;;10093828;28;20025;-61
2023/03/05 15:05:11;;;;;;;4.72;2.75;;;7.70;98.50;;;;;;10098441;28;20032;-60
2023/03/05 15:10:03;;;;;;;9.15;3.40;;;7.70;98.40;;;;;;10102404;28;20021;-60
2023/03/05 15:14:55;;;;;;;6.30;3.00;;;7.70;98.40;;;;;;10100404;28;20115;-62
2023/03/05 15:19:46;;;;;;;5.55;3.58;;;7.70;98.40;;;;;;10095863;28;20033;-60
2023/03/05 15:24:36;;;;;;;6.32;3.17;;;7.70;98.20;;;;;;10101027;28;20409;-59
2023/03/05 15:29:27;;;;;;;5.28;3.03;;;7.70;98.10;;;;;;10101820;28;20035;-60
2023/03/05 15:34:18;;;;;;;9.60;3.38;;;7.60;98.10;;;;;;10101256;28;20518;-61
2023/03/05 15:39:08;;;;;;;5.47;2.58;;;7.60;98.10;;;;;;10100415;28;20037;-59
2023/03/05 15:43:59;;;;;;;7.80;3.35;;;7.60;98.10;;;;;;10100982;28;20033;-60
2023/03/05 15:48:49;;;;;;;6.10;3.33;;;7.70;98.30;;;;;;10099347;28;20044;-61
2023/03/05 15:53:40;;;;;;;8.85;3.55;;;7.60;97.90;;;;;;10099590;28;20139;-61
2023/03/05 15:58:31;;;;;;;7.13;2.70;;;7.60;97.90;;;;;;10099866;28;20175;-60
2023/03/05 16:03:22;;;;;;;7.90;3.25;;;7.60;97.90;;;;;;10101821;28;20496;-59
2023/03/05 16:08:12;;;;;;;5.38;3.22;;;7.50;97.90;;;;;;10098079;28;20037;-59
2023/03/05 16:13:08;;;;;;;5.22;2.85;;;7.40;97.80;;;;;;10098730;28;20104;-60
2023/03/05 16:18:03;;;;;;;6.70;3.22;;;7.40;97.80;;;;;;10098420;28;20040;-60
2023/03/05 16:22:54;;;;;;;5.90;3.80;;;7.40;97.60;;;;;;10098620;28;20037;-61
2023/03/05 16:27:44;;;;;;;8.52;3.35;;;7.50;97.70;;;;;;10099750;28;20511;-60
2023/03/05 16:32:37;;;;;;;5.05;3.30;;;7.40;97.70;;;;;;10099653;28;20032;-60
2023/03/05 16:37:28;;;;;;;5.97;3.72;;;7.40;97.50;;;;;;10099547;28;20033;-59
2023/03/05 16:42:19;;;;;;;6.72;3.35;;;7.20;97.50;;;;;;10099384;28;20032;-60
2023/03/05 16:47:13;;;;;;;6.65;3.60;;;7.20;97.50;;;;;;10097504;28;20495;-61
2023/03/05 16:52:05;;;;;;;7.90;4.13;;;7.30;97.50;;;;;;10098980;28;20024;-59
2023/03/05 16:56:57;;;;;;;7.47;3.75;;;7.20;97.50;;;;;;10102096;28;20041;-59
2023/03/05 17:01:47;;;;;;;10.13;3.88;;;7.10;97.50;;;;;;10102245;28;20032;-59
2023/03/05 17:06:38;;;;;;;9.20;3.85;;;7.10;97.50;;;;;;10106532;28;20024;-60
2023/03/05 17:11:29;;;;;;;9.52;4.85;;;7.10;97.50;;;;;;10106483;28;20383;-60
2023/03/05 17:16:20;;;;;;;9.75;4.20;;;7.10;97.50;;;;;;10107091;28;20017;-60
2023/03/05 17:21:11;;;;;;;6.47;3.97;;;7.10;97.50;;;;;;10104072;28;20041;-60
2023/03/05 17:26:04;;;;;;;12.23;6.70;;;7.10;97.50;;;;;;10104310;28;20021;-59
2023/03/05 17:30:58;;;;;;;7.70;5.00;;;7.00;97.40;;;;;;10105670;28;20522;-59
2023/03/05 17:35:49;;;;;;;8.50;4.88;;;7.10;97.50;;;;;;10105638;28;20075;-59
2023/03/05 17:40:40;;;;;;;12.25;5.20;;;7.10;97.50;;;;;;10105357;28;20048;-60
2023/03/05 17:45:31;;;;;;;8.70;4.20;;;7.00;97.40;;;;;;10105149;28;20040;-60
2023/03/05 17:50:23;;;;;;;6.32;3.90;;;7.10;97.50;;;;;;10105081;28;20032;-60
2023/03/05 17:55:16;;;;;;;10.02;5.05;;;7.00;97.60;;;;;;10108759;28;20474;-61
2023/03/05 18:00:15;;;;;;;7.63;4.47;;;7.00;97.50;;;;;;10103982;28;20033;-60
2023/03/05 18:05:07;;;;;;;8.27;4.13;;;6.90;97.60;;;;;;10105933;28;21070;-60
2023/03/05 18:09:58;;;;;;;8.25;4.35;;;6.90;97.70;;;;;;10104537;28;20013;-59
2023/03/05 18:14:48;;;;;;;8.30;3.80;;;6.90;97.70;;;;;;10103214;28;20237;-60
2023/03/05 18:19:39;;;;;;;6.47;3.80;;;6.90;97.80;;;;;;10103770;28;20495;-60
2023/03/05 18:24:30;;;;;;;13.18;4.95;;;7.00;97.70;;;;;;10103446;28;20128;-60
2023/03/05 18:29:20;;;;;;;7.53;4.10;;;7.00;97.70;;;;;;10103838;28;20025;-59
2023/03/05 18:34:11;;;;;;;9.98;5.47;;;6.90;97.90;;;;;;10102874;28;20032;-59
2023/03/05 18:39:03;;;;;;;17.33;6.03;;;6.80;97.90;;;;;;10102950;28;20073;-59
2023/03/05 18:43:53;;;;;;;11.32;5.25;;;6.80;97.80;;;;;;10101693;28;20077;-59
2023/03/05 18:48:45;;;;;;;9.63;5.70;;;6.80;97.90;;;;;;10102609;28;20033;-60
2023/03/05 18:53:35;;;;;;;8.55;4.43;;;6.80;97.90;;;;;;10101065;28;20515;-60
2023/03/05 18:58:26;;;;;;;10.52;5.28;;;6.80;98.00;;;;;;10102716;28;20036;-60
2023/03/05 19:03:17;;;;;;;7.25;3.80;;;6.80;98.00;;;;;;10103544;28;20037;-59
2023/03/05 19:08:08;;;;;;;9.70;4.43;;;6.80;98.10;;;;;;10101446;28;20021;-59
2023/03/05 19:18:19;;;;;;;7.75;5.03;;;6.90;98.10;;;;;;10101469;28;20035;-60
2023/03/05 19:23:10;;;;;;;8.23;4.28;;;6.90;98.10;;;;;;10100950;28;20037;-60
2023/03/05 19:28:00;;;;;;;7.25;4.07;;;6.90;98.10;;;;;;10099010;28;20031;-60
2023/03/05 19:32:51;;;;;;;10.10;4.28;;;6.80;98.20;;;;;;10098631;28;20037;-60
2023/03/05 19:37:44;;;;;;;7.57;4.32;;;6.80;98.40;;;;;;10101042;28;20040;-60
2023/03/05 19:42:36;;;;;;;12.00;5.28;;;6.70;98.40;;;;;;10099418;28;20083;-61
2023/03/05 19:47:27;;;;;;;10.32;4.75;;;6.60;98.30;;;;;;10096339;28;20021;-61
2023/03/05 19:52:18;;;;;;;9.43;4.40;;;6.60;98.50;;;;;;10101131;28;20091;-60
2023/03/05 19:57:08;;;;;;;6.03;3.83;;;6.70;98.50;;;;;;10100709;28;20041;-60
2023/03/05 20:01:59;;;;;;;11.25;5.65;;;6.70;98.40;;;;;;10102448;28;20043;-61
2023/03/05 20:06:50;;;;;;;8.02;5.07;;;6.70;98.40;;;;;;10077627;28;20024;-61
2023/03/05 20:11:41;;;;;;;11.15;5.43;;;6.60;98.40;;;;;;10101787;28;20033;-60
2023/03/05 20:16:34;;;;;;;11.65;5.38;;;6.60;98.50;;;;;;10102371;28;20152;-61
2023/03/05 20:21:47;;;;;;;24.40;11.13;;;6.60;98.50;;;;;;10101773;28;20568;-64
2023/03/05 20:26:39;;;;;;;19.45;7.85;;;6.60;98.50;;;;;;10101183;28;20036;-60
2023/03/05 20:31:32;;;;;;;8.75;5.05;;;6.60;98.50;;;;;;10099810;28;20108;-62
2023/03/05 20:36:23;;;;;;;13.60;6.35;;;6.60;98.50;;;;;;10138758;22;20056;-61
2023/03/05 20:41:16;;;;;;;13.60;5.68;;;6.60;98.50;;;;;;10147305;28;20039;-62
2023/03/05 20:46:18;;;;;;;10.50;5.22;;;6.50;98.60;;;;;;10145969;28;20032;-62
2023/03/05 20:51:11;;;;;;;13.88;5.50;;;6.50;98.60;;;;;;10145991;28;20025;-61
2023/03/05 20:56:02;;;;;;;11.18;4.85;;;6.40;98.80;;;;;;10146368;28;20056;-62
2023/03/05 21:00:53;;;;;;;14.70;6.65;;;6.40;98.80;;;;;;10145952;28;20103;-64
2023/03/05 21:05:45;;;;;;;10.50;4.97;;;6.40;98.80;;;;;;10147473;28;20037;-60
2023/03/05 21:10:37;;;;;;;11.80;6.63;;;6.40;98.90;;;;;;10145703;28;20035;-61
2023/03/05 21:15:29;;;;;;;12.35;5.55;;;6.30;99.00;;;;;;10146109;28;20393;-61
2023/03/05 21:20:25;;;;;;;12.93;5.43;;;6.40;99.00;;;;;;10145616;28;20127;-62
2023/03/05 21:25:28;;;;;;;8.68;4.55;;;6.40;99.00;;;;;;10144337;28;20027;-60
2023/03/05 21:30:19;;;;;;;11.05;4.85;;;6.50;99.00;;;;;;10144054;28;20063;-63
2023/03/05 21:35:18;;;;;;;13.43;5.75;;;6.50;99.00;;;;;;10145445;28;20049;-62
2023/03/05 21:40:14;;;;;;;9.30;5.15;;;6.50;99.00;;;;;;10144738;28;20028;-64
2023/03/05 21:45:06;;;;;;;9.27;5.60;;;6.50;99.10;;;;;;10145178;28;20107;-64
2023/03/05 21:49:57;;;;;;;8.82;4.93;;;6.40;99.10;;;;;;10143418;28;20032;-63
2023/03/05 21:54:48;;;;;;;13.88;5.53;;;6.40;99.10;;;;;;10144664;28;20445;-63
2023/03/05 21:59:40;;;;;;;8.88;5.68;;;6.40;99.20;;;;;;10144774;28;20021;-62
2023/03/05 22:04:31;;;;;;;11.68;5.13;;;6.30;99.20;;;;;;10151731;28;20036;-62
2023/03/05 22:09:21;;;;;;;11.15;6.05;;;6.40;99.20;;;;;;10143071;28;20036;-62
2023/03/05 22:14:12;;;;;;;12.52;5.63;;;6.40;99.20;;;;;;10144139;28;20027;-61
2023/03/05 22:19:03;;;;;;;11.48;5.70;;;6.40;99.20;;;;;;10143109;28;20039;-62
2023/03/05 22:23:57;;;;;;;12.05;6.75;;;6.50;99.20;;;;;;10143782;28;20213;-62
2023/03/05 22:28:48;;;;;;;12.90;6.43;;;6.50;99.20;;;;;;10141811;28;20028;-64
2023/03/05 22:33:39;;;;;;;14.93;6.38;;;6.50;99.30;;;;;;10142493;28;20044;-61
2023/03/05 22:38:30;;;;;;;10.32;5.45;;;6.40;99.20;;;;;;10142696;28;20065;-63
2023/03/05 22:43:20;;;;;;;12.07;5.90;;;6.30;99.30;;;;;;10142936;28;20512;-61
2023/03/05 22:48:11;;;;;;;11.60;5.88;;;6.30;99.30;;;;;;10142959;28;20096;-61
2023/03/05 22:53:02;;;;;;;9.57;5.85;;;6.30;99.30;;;;;;10142748;28;20036;-63
2023/03/05 22:57:53;;;;;;;14.05;6.05;;;6.30;99.40;;;;;;10136429;28;20016;-63
2023/03/05 23:02:44;;;;;;;11.40;6.03;;;6.30;99.40;;;;;;10145094;28;20390;-61
2023/03/05 23:07:37;;;;;;;11.95;5.93;;;6.40;99.30;;;;;;10141736;28;20063;-64
2023/03/05 23:12:30;;;;;;;11.52;6.18;;;6.30;99.20;;;;;;10141163;28;20036;-62
2023/03/05 23:17:21;;;;;;;10.77;5.07;;;6.30;99.30;;;;;;10141963;28;20102;-61
2023/03/05 23:22:13;;;;;;;9.77;5.63;;;6.40;99.20;;;;;;10141750;28;20113;-61
2023/03/05 23:27:06;;;;;;;11.32;4.80;;;6.40;99.30;;;;;;10139458;28;20032;-61
2023/03/05 23:31:57;;;;;;;10.75;5.85;;;6.40;99.30;;;;;;10141264;28;20418;-60
2023/03/05 23:36:48;;;;;;;12.73;6.28;;;6.50;99.20;;;;;;10141060;28;20131;-61
2023/03/05 23:41:38;;;;;;;12.95;6.40;;;6.40;99.20;;;;;;10140471;28;20037;-61
2023/03/05 23:46:29;;;;;;;11.43;6.03;;;6.30;99.40;;;;;;10140248;28;20021;-61
2023/03/05 23:51:20;;;;;;;15.55;6.38;;;6.30;99.30;;;;;;10140168;28;20499;-61
2023/03/05 23:56:10;;;;;;;14.63;8.68;;;6.20;99.30;;;;;;10140057;28;20461;-60
